sensor_id;sensor_type;location;lat;lon;timestamp;P1;durP1;ratioP1;P2;durP2;ratioP2
17510;SDS011;8873;48.818;9.422;2022-12-05T00:01:26;40.37;;;13.80;;
17510;SDS011;8873;48.818;9.422;2022-12-05T00:03:55;42.30;;;13.77;;
17510;SDS011;8873;48.818;9.422;2022-12-05T00:06:24;41.33;;;12.67;;
17510;SDS011;8873;48.818;9.422;2022-12-05T00:08:56;34.67;;;13.33;;
17510;SDS011;8873;48.818;9.422;2022-12-05T00:11:24;36.17;;;14.43;;
17510;SDS011;8873;48.818;9.422;2022-12-05T00:13:52;37.50;;;13.83;;
17510;SDS011;8873;48.818;9.422;2022-12-05T00:16:22;40.33;;;13.60;;
17510;SDS011;8873;48.818;9.422;2022-12-05T00:18:49;40.10;;;13.70;;
17510;SDS011;8873;48.818;9.422;2022-12-05T00:21:18;39.40;;;13.23;;
17510;SDS011;8873;48.818;9.422;2022-12-05T00:23:46;35.53;;;12.90;;
17510;SDS011;8873;48.818;9.422;2022-12-05T00:26:15;36.90;;;12.97;;
17510;SDS011;8873;48.818;9.422;2022-12-05T00:28:42;33.23;;;12.97;;
17510;SDS011;8873;48.818;9.422;2022-12-05T00:31:13;36.20;;;12.40;;
17510;SDS011;8873;48.818;9.422;2022-12-05T00:33:41;33.73;;;12.20;;
17510;SDS011;8873;48.818;9.422;2022-12-05T00:36:10;38.00;;;13.20;;
17510;SDS011;8873;48.818;9.422;2022-12-05T00:38:38;29.63;;;11.90;;
17510;SDS011;8873;48.818;9.422;2022-12-05T00:41:08;31.67;;;12.03;;
17510;SDS011;8873;48.818;9.422;2022-12-05T00:43:37;35.90;;;11.47;;
17510;SDS011;8873;48.818;9.422;2022-12-05T00:46:05;28.53;;;11.03;;
17510;SDS011;8873;48.818;9.422;2022-12-05T00:48:33;31.07;;;11.33;;
17510;SDS011;8873;48.818;9.422;2022-12-05T00:51:01;34.67;;;12.73;;
17510;SDS011;8873;48.818;9.422;2022-12-05T00:53:29;32.07;;;11.90;;
17510;SDS011;8873;48.818;9.422;2022-12-05T00:56:00;33.77;;;11.53;;
17510;SDS011;8873;48.818;9.422;2022-12-05T00:58:27;29.93;;;11.37;;
17510;SDS011;8873;48.818;9.422;2022-12-05T01:00:57;30.63;;;12.17;;
17510;SDS011;8873;48.818;9.422;2022-12-05T01:03:24;33.07;;;12.23;;
17510;SDS011;8873;48.818;9.422;2022-12-05T01:05:54;35.93;;;11.93;;
17510;SDS011;8873;48.818;9.422;2022-12-05T01:08:21;31.63;;;12.33;;
17510;SDS011;8873;48.818;9.422;2022-12-05T01:10:53;28.57;;;11.73;;
17510;SDS011;8873;48.818;9.422;2022-12-05T01:13:21;32.57;;;11.97;;
17510;SDS011;8873;48.818;9.422;2022-12-05T01:15:49;27.17;;;11.80;;
17510;SDS011;8873;48.818;9.422;2022-12-05T01:18:18;30.70;;;12.27;;
17510;SDS011;8873;48.818;9.422;2022-12-05T01:20:46;31.13;;;11.40;;
17510;SDS011;8873;48.818;9.422;2022-12-05T01:23:14;32.30;;;11.97;;
17510;SDS011;8873;48.818;9.422;2022-12-05T01:25:42;29.03;;;11.80;;
17510;SDS011;8873;48.818;9.422;2022-12-05T01:28:09;35.23;;;12.30;;
17510;SDS011;8873;48.818;9.422;2022-12-05T01:30:39;27.83;;;12.50;;
17510;SDS011;8873;48.818;9.422;2022-12-05T01:33:07;33.13;;;11.73;;
17510;SDS011;8873;48.818;9.422;2022-12-05T01:35:37;29.00;;;12.43;;
17510;SDS011;8873;48.818;9.422;2022-12-05T01:38:05;32.33;;;12.10;;
17510;SDS011;8873;48.818;9.422;2022-12-05T01:40:33;30.07;;;11.73;;
17510;SDS011;8873;48.818;9.422;2022-12-05T01:43:02;28.00;;;11.27;;
17510;SDS011;8873;48.818;9.422;2022-12-05T01:45:31;31.87;;;12.10;;
17510;SDS011;8873;48.818;9.422;2022-12-05T01:47:59;30.83;;;12.23;;
17510;SDS011;8873;48.818;9.422;2022-12-05T01:50:28;26.17;;;10.63;;
17510;SDS011;8873;48.818;9.422;2022-12-05T01:52:57;29.60;;;12.00;;
17510;SDS011;8873;48.818;9.422;2022-12-05T01:55:25;26.77;;;11.60;;
17510;SDS011;8873;48.818;9.422;2022-12-05T01:57:53;25.97;;;11.23;;
17510;SDS011;8873;48.818;9.422;2022-12-05T02:00:22;30.07;;;10.80;;
17510;SDS011;8873;48.818;9.422;2022-12-05T02:02:51;29.10;;;10.67;;
17510;SDS011;8873;48.818;9.422;2022-12-05T02:05:21;28.20;;;11.73;;
17510;SDS011;8873;48.818;9.422;2022-12-05T02:07:49;24.50;;;10.30;;
17510;SDS011;8873;48.818;9.422;2022-12-05T02:10:19;23.83;;;10.33;;
17510;SDS011;8873;48.818;9.422;2022-12-05T02:12:46;26.60;;;9.97;;
17510;SDS011;8873;48.818;9.422;2022-12-05T02:18:05;27.00;;;10.20;;
17510;SDS011;8873;48.818;9.422;2022-12-05T02:20:38;24.13;;;9.50;;
17510;SDS011;8873;48.818;9.422;2022-12-05T02:23:24;25.00;;;9.80;;
17510;SDS011;8873;48.818;9.422;2022-12-05T02:26:03;22.17;;;9.13;;
17510;SDS011;8873;48.818;9.422;2022-12-05T02:28:43;24.30;;;9.60;;
17510;SDS011;8873;48.818;9.422;2022-12-05T02:31:17;20.30;;;8.70;;
17510;SDS011;8873;48.818;9.422;2022-12-05T02:33:47;17.23;;;8.10;;
17510;SDS011;8873;48.818;9.422;2022-12-05T02:36:17;19.17;;;8.37;;
17510;SDS011;8873;48.818;9.422;2022-12-05T02:38:49;23.50;;;8.23;;
17510;SDS011;8873;48.818;9.422;2022-12-05T02:41:20;20.77;;;7.83;;
17510;SDS011;8873;48.818;9.422;2022-12-05T02:43:50;24.20;;;9.07;;
17510;SDS011;8873;48.818;9.422;2022-12-05T02:46:21;22.53;;;8.80;;
17510;SDS011;8873;48.818;9.422;2022-12-05T02:48:50;20.77;;;9.40;;
17510;SDS011;8873;48.818;9.422;2022-12-05T02:51:21;22.37;;;8.90;;
17510;SDS011;8873;48.818;9.422;2022-12-05T02:53:50;20.90;;;8.70;;
17510;SDS011;8873;48.818;9.422;2022-12-05T02:56:18;21.97;;;9.07;;
17510;SDS011;8873;48.818;9.422;2022-12-05T02:58:47;27.67;;;10.50;;
17510;SDS011;8873;48.818;9.422;2022-12-05T03:01:17;27.13;;;9.87;;
17510;SDS011;8873;48.818;9.422;2022-12-05T03:03:46;24.07;;;9.73;;
17510;SDS011;8873;48.818;9.422;2022-12-05T03:06:14;24.50;;;9.97;;
17510;SDS011;8873;48.818;9.422;2022-12-05T03:08:45;25.00;;;9.73;;
17510;SDS011;8873;48.818;9.422;2022-12-05T03:11:14;25.67;;;10.07;;
17510;SDS011;8873;48.818;9.422;2022-12-05T03:13:43;29.27;;;10.73;;
17510;SDS011;8873;48.818;9.422;2022-12-05T03:16:13;27.93;;;10.03;;
17510;SDS011;8873;48.818;9.422;2022-12-05T03:18:42;26.23;;;9.87;;
17510;SDS011;8873;48.818;9.422;2022-12-05T03:21:16;27.33;;;9.50;;
17510;SDS011;8873;48.818;9.422;2022-12-05T03:23:46;27.17;;;10.67;;
17510;SDS011;8873;48.818;9.422;2022-12-05T03:26:17;26.67;;;9.90;;
17510;SDS011;8873;48.818;9.422;2022-12-05T03:28:48;28.33;;;10.33;;
17510;SDS011;8873;48.818;9.422;2022-12-05T03:31:22;24.90;;;9.57;;
17510;SDS011;8873;48.818;9.422;2022-12-05T03:33:51;27.17;;;11.00;;
17510;SDS011;8873;48.818;9.422;2022-12-05T03:36:27;23.17;;;9.83;;
17510;SDS011;8873;48.818;9.422;2022-12-05T03:38:55;27.07;;;10.17;;
17510;SDS011;8873;48.818;9.422;2022-12-05T03:41:24;25.83;;;10.60;;
17510;SDS011;8873;48.818;9.422;2022-12-05T03:43:56;24.97;;;10.30;;
17510;SDS011;8873;48.818;9.422;2022-12-05T03:46:25;29.33;;;11.73;;
17510;SDS011;8873;48.818;9.422;2022-12-05T03:48:54;27.97;;;10.50;;
17510;SDS011;8873;48.818;9.422;2022-12-05T03:51:27;28.93;;;11.27;;
17510;SDS011;8873;48.818;9.422;2022-12-05T03:53:58;27.50;;;10.60;;
17510;SDS011;8873;48.818;9.422;2022-12-05T03:56:29;27.30;;;11.23;;
17510;SDS011;8873;48.818;9.422;2022-12-05T03:59:01;27.77;;;10.57;;
17510;SDS011;8873;48.818;9.422;2022-12-05T04:01:31;33.30;;;10.93;;
17510;SDS011;8873;48.818;9.422;2022-12-05T04:04:01;25.90;;;9.83;;
17510;SDS011;8873;48.818;9.422;2022-12-05T04:06:32;27.37;;;9.87;;
17510;SDS011;8873;48.818;9.422;2022-12-05T04:09:01;24.93;;;9.67;;
17510;SDS011;8873;48.818;9.422;2022-12-05T04:11:30;30.80;;;9.97;;
17510;SDS011;8873;48.818;9.422;2022-12-05T04:14:00;28.13;;;9.75;;
17510;SDS011;8873;48.818;9.422;2022-12-05T04:16:28;22.73;;;9.63;;
17510;SDS011;8873;48.818;9.422;2022-12-05T04:19:16;24.10;;;10.77;;
17510;SDS011;8873;48.818;9.422;2022-12-05T04:21:47;24.37;;;10.13;;
17510;SDS011;8873;48.818;9.422;2022-12-05T04:24:15;28.23;;;11.23;;
17510;SDS011;8873;48.818;9.422;2022-12-05T04:27:09;27.63;;;10.73;;
17510;SDS011;8873;48.818;9.422;2022-12-05T04:29:41;24.00;;;10.13;;
17510;SDS011;8873;48.818;9.422;2022-12-05T04:32:10;27.70;;;10.67;;
17510;SDS011;8873;48.818;9.422;2022-12-05T04:34:39;26.73;;;10.50;;
17510;SDS011;8873;48.818;9.422;2022-12-05T04:40:18;27.30;;;10.10;;
17510;SDS011;8873;48.818;9.422;2022-12-05T04:42:47;24.53;;;10.33;;
17510;SDS011;8873;48.818;9.422;2022-12-05T04:45:17;30.13;;;10.30;;
17510;SDS011;8873;48.818;9.422;2022-12-05T04:47:48;26.05;;;10.30;;
17510;SDS011;8873;48.818;9.422;2022-12-05T04:50:17;26.53;;;10.93;;
17510;SDS011;8873;48.818;9.422;2022-12-05T04:52:46;24.00;;;9.30;;
17510;SDS011;8873;48.818;9.422;2022-12-05T04:55:16;26.87;;;10.87;;
17510;SDS011;8873;48.818;9.422;2022-12-05T04:57:48;27.07;;;10.00;;
17510;SDS011;8873;48.818;9.422;2022-12-05T05:00:17;24.73;;;10.87;;
17510;SDS011;8873;48.818;9.422;2022-12-05T05:02:48;25.40;;;10.47;;
17510;SDS011;8873;48.818;9.422;2022-12-05T05:05:17;28.70;;;11.07;;
17510;SDS011;8873;48.818;9.422;2022-12-05T05:07:46;32.10;;;10.93;;
17510;SDS011;8873;48.818;9.422;2022-12-05T05:10:15;29.43;;;10.93;;
17510;SDS011;8873;48.818;9.422;2022-12-05T05:12:44;32.60;;;12.10;;
17510;SDS011;8873;48.818;9.422;2022-12-05T05:15:12;27.73;;;11.07;;
17510;SDS011;8873;48.818;9.422;2022-12-05T05:17:40;30.27;;;10.80;;
17510;SDS011;8873;48.818;9.422;2022-12-05T05:20:08;29.83;;;11.30;;
17510;SDS011;8873;48.818;9.422;2022-12-05T05:22:52;31.53;;;11.37;;
17510;SDS011;8873;48.818;9.422;2022-12-05T05:25:20;28.77;;;10.97;;
17510;SDS011;8873;48.818;9.422;2022-12-05T05:27:48;29.27;;;11.10;;
17510;SDS011;8873;48.818;9.422;2022-12-05T05:30:18;31.63;;;12.07;;
17510;SDS011;8873;48.818;9.422;2022-12-05T05:32:46;27.80;;;11.90;;
17510;SDS011;8873;48.818;9.422;2022-12-05T05:35:14;30.43;;;12.13;;
17510;SDS011;8873;48.818;9.422;2022-12-05T05:37:41;28.23;;;11.73;;
17510;SDS011;8873;48.818;9.422;2022-12-05T05:40:12;27.93;;;11.23;;
17510;SDS011;8873;48.818;9.422;2022-12-05T05:42:43;25.43;;;11.27;;
17510;SDS011;8873;48.818;9.422;2022-12-05T05:45:14;32.77;;;12.27;;
17510;SDS011;8873;48.818;9.422;2022-12-05T05:47:43;27.57;;;10.80;;
17510;SDS011;8873;48.818;9.422;2022-12-05T05:50:11;28.60;;;11.13;;
17510;SDS011;8873;48.818;9.422;2022-12-05T05:52:46;30.47;;;11.13;;
17510;SDS011;8873;48.818;9.422;2022-12-05T05:55:14;27.50;;;11.83;;
17510;SDS011;8873;48.818;9.422;2022-12-05T05:57:42;30.30;;;11.40;;
17510;SDS011;8873;48.818;9.422;2022-12-05T06:00:09;28.53;;;12.13;;
17510;SDS011;8873;48.818;9.422;2022-12-05T06:02:37;26.87;;;11.33;;
17510;SDS011;8873;48.818;9.422;2022-12-05T06:05:07;30.73;;;11.40;;
17510;SDS011;8873;48.818;9.422;2022-12-05T06:07:34;29.07;;;11.67;;
17510;SDS011;8873;48.818;9.422;2022-12-05T06:10:02;33.43;;;12.00;;
17510;SDS011;8873;48.818;9.422;2022-12-05T06:12:30;31.03;;;12.10;;
17510;SDS011;8873;48.818;9.422;2022-12-05T06:14:58;31.67;;;11.37;;
17510;SDS011;8873;48.818;9.422;2022-12-05T06:17:25;30.77;;;12.03;;
17510;SDS011;8873;48.818;9.422;2022-12-05T06:19:53;25.53;;;10.67;;
17510;SDS011;8873;48.818;9.422;2022-12-05T06:22:22;26.67;;;11.27;;
17510;SDS011;8873;48.818;9.422;2022-12-05T06:24:50;33.57;;;12.77;;
17510;SDS011;8873;48.818;9.422;2022-12-05T06:27:17;28.50;;;11.10;;
17510;SDS011;8873;48.818;9.422;2022-12-05T06:29:45;32.60;;;12.13;;
17510;SDS011;8873;48.818;9.422;2022-12-05T06:32:12;41.13;;;14.23;;
17510;SDS011;8873;48.818;9.422;2022-12-05T06:34:40;41.63;;;13.50;;
17510;SDS011;8873;48.818;9.422;2022-12-05T06:37:07;34.10;;;12.87;;
17510;SDS011;8873;48.818;9.422;2022-12-05T06:39:36;32.60;;;11.93;;
17510;SDS011;8873;48.818;9.422;2022-12-05T06:42:04;30.53;;;11.80;;
17510;SDS011;8873;48.818;9.422;2022-12-05T06:44:32;32.00;;;11.83;;
17510;SDS011;8873;48.818;9.422;2022-12-05T06:46:59;29.47;;;12.03;;
17510;SDS011;8873;48.818;9.422;2022-12-05T06:49:27;28.60;;;12.43;;
17510;SDS011;8873;48.818;9.422;2022-12-05T06:52:03;33.20;;;12.17;;
17510;SDS011;8873;48.818;9.422;2022-12-05T06:54:30;28.47;;;10.73;;
17510;SDS011;8873;48.818;9.422;2022-12-05T06:56:59;40.13;;;11.77;;
17510;SDS011;8873;48.818;9.422;2022-12-05T06:59:27;32.87;;;13.00;;
17510;SDS011;8873;48.818;9.422;2022-12-05T07:01:55;24.67;;;11.13;;
17510;SDS011;8873;48.818;9.422;2022-12-05T07:04:22;26.90;;;11.70;;
17510;SDS011;8873;48.818;9.422;2022-12-05T07:06:50;27.80;;;12.50;;
17510;SDS011;8873;48.818;9.422;2022-12-05T07:09:19;32.53;;;12.23;;
17510;SDS011;8873;48.818;9.422;2022-12-05T07:11:47;30.90;;;12.37;;
17510;SDS011;8873;48.818;9.422;2022-12-05T07:14:16;31.37;;;12.70;;
17510;SDS011;8873;48.818;9.422;2022-12-05T07:17:04;36.07;;;12.83;;
17510;SDS011;8873;48.818;9.422;2022-12-05T07:19:31;41.00;;;14.70;;
17510;SDS011;8873;48.818;9.422;2022-12-05T07:21:59;52.03;;;22.53;;
17510;SDS011;8873;48.818;9.422;2022-12-05T07:24:26;54.97;;;22.27;;
17510;SDS011;8873;48.818;9.422;2022-12-05T07:26:54;34.78;;;14.55;;
17510;SDS011;8873;48.818;9.422;2022-12-05T07:29:23;34.30;;;13.00;;
17510;SDS011;8873;48.818;9.422;2022-12-05T07:31:52;30.80;;;12.30;;
17510;SDS011;8873;48.818;9.422;2022-12-05T07:34:19;35.17;;;13.37;;
17510;SDS011;8873;48.818;9.422;2022-12-05T07:36:47;27.57;;;12.40;;
17510;SDS011;8873;48.818;9.422;2022-12-05T07:39:15;38.00;;;12.87;;
17510;SDS011;8873;48.818;9.422;2022-12-05T07:41:42;30.30;;;11.67;;
17510;SDS011;8873;48.818;9.422;2022-12-05T07:44:10;39.13;;;12.53;;
17510;SDS011;8873;48.818;9.422;2022-12-05T07:46:39;30.90;;;12.38;;
17510;SDS011;8873;48.818;9.422;2022-12-05T07:49:07;31.27;;;12.53;;
17510;SDS011;8873;48.818;9.422;2022-12-05T07:51:35;30.20;;;12.93;;
17510;SDS011;8873;48.818;9.422;2022-12-05T07:54:02;32.27;;;13.17;;
17510;SDS011;8873;48.818;9.422;2022-12-05T07:56:30;31.37;;;12.07;;
17510;SDS011;8873;48.818;9.422;2022-12-05T07:58:57;31.00;;;11.70;;
17510;SDS011;8873;48.818;9.422;2022-12-05T08:01:26;30.20;;;11.57;;
17510;SDS011;8873;48.818;9.422;2022-12-05T08:03:57;28.07;;;11.93;;
17510;SDS011;8873;48.818;9.422;2022-12-05T08:06:25;28.53;;;11.80;;
17510;SDS011;8873;48.818;9.422;2022-12-05T08:08:54;33.07;;;12.27;;
17510;SDS011;8873;48.818;9.422;2022-12-05T08:11:22;25.10;;;11.55;;
17510;SDS011;8873;48.818;9.422;2022-12-05T08:13:52;31.23;;;10.83;;
17510;SDS011;8873;48.818;9.422;2022-12-05T08:16:20;24.23;;;10.53;;
17510;SDS011;8873;48.818;9.422;2022-12-05T08:18:52;29.40;;;13.43;;
17510;SDS011;8873;48.818;9.422;2022-12-05T08:21:21;30.67;;;13.17;;
17510;SDS011;8873;48.818;9.422;2022-12-05T08:23:50;30.43;;;13.53;;
17510;SDS011;8873;48.818;9.422;2022-12-05T08:26:19;32.50;;;12.83;;
17510;SDS011;8873;48.818;9.422;2022-12-05T08:28:49;27.30;;;12.23;;
17510;SDS011;8873;48.818;9.422;2022-12-05T08:31:18;35.00;;;13.15;;
17510;SDS011;8873;48.818;9.422;2022-12-05T08:33:46;27.20;;;11.53;;
17510;SDS011;8873;48.818;9.422;2022-12-05T08:36:17;29.87;;;12.00;;
17510;SDS011;8873;48.818;9.422;2022-12-05T08:38:46;22.10;;;10.45;;
17510;SDS011;8873;48.818;9.422;2022-12-05T08:41:15;26.92;;;10.65;;
17510;SDS011;8873;48.818;9.422;2022-12-05T08:43:43;29.37;;;11.33;;
17510;SDS011;8873;48.818;9.422;2022-12-05T08:46:11;25.15;;;10.77;;
17510;SDS011;8873;48.818;9.422;2022-12-05T08:48:38;28.97;;;12.53;;
17510;SDS011;8873;48.818;9.422;2022-12-05T08:51:07;30.87;;;10.10;;
17510;SDS011;8873;48.818;9.422;2022-12-05T08:53:35;25.77;;;10.68;;
17510;SDS011;8873;48.818;9.422;2022-12-05T08:56:11;24.93;;;10.87;;
17510;SDS011;8873;48.818;9.422;2022-12-05T08:58:39;32.90;;;11.63;;
17510;SDS011;8873;48.818;9.422;2022-12-05T09:01:07;26.35;;;10.35;;
17510;SDS011;8873;48.818;9.422;2022-12-05T09:03:36;27.67;;;11.82;;
17510;SDS011;8873;48.818;9.422;2022-12-05T09:06:10;26.13;;;11.45;;
17510;SDS011;8873;48.818;9.422;2022-12-05T09:08:38;27.30;;;11.10;;
17510;SDS011;8873;48.818;9.422;2022-12-05T09:11:06;23.50;;;10.27;;
17510;SDS011;8873;48.818;9.422;2022-12-05T09:13:36;27.45;;;11.13;;
17510;SDS011;8873;48.818;9.422;2022-12-05T09:16:04;29.23;;;11.27;;
17510;SDS011;8873;48.818;9.422;2022-12-05T09:18:32;24.67;;;11.13;;
17510;SDS011;8873;48.818;9.422;2022-12-05T09:21:03;19.00;;;8.73;;
17510;SDS011;8873;48.818;9.422;2022-12-05T09:23:31;19.60;;;9.07;;
17510;SDS011;8873;48.818;9.422;2022-12-05T09:25:59;23.98;;;10.82;;
17510;SDS011;8873;48.818;9.422;2022-12-05T09:28:27;24.70;;;10.10;;
17510;SDS011;8873;48.818;9.422;2022-12-05T09:30:57;23.13;;;10.13;;
17510;SDS011;8873;48.818;9.422;2022-12-05T09:33:26;24.67;;;10.23;;
17510;SDS011;8873;48.818;9.422;2022-12-05T09:35:54;23.17;;;9.00;;
17510;SDS011;8873;48.818;9.422;2022-12-05T09:38:22;19.58;;;9.48;;
17510;SDS011;8873;48.818;9.422;2022-12-05T09:40:50;18.90;;;9.05;;
17510;SDS011;8873;48.818;9.422;2022-12-05T09:43:24;15.40;;;8.13;;
17510;SDS011;8873;48.818;9.422;2022-12-05T09:45:55;20.92;;;8.23;;
17510;SDS011;8873;48.818;9.422;2022-12-05T09:48:27;19.02;;;8.43;;
17510;SDS011;8873;48.818;9.422;2022-12-05T09:50:56;18.98;;;8.43;;
17510;SDS011;8873;48.818;9.422;2022-12-05T09:53:25;13.95;;;6.97;;
17510;SDS011;8873;48.818;9.422;2022-12-05T09:55:55;13.45;;;7.50;;
17510;SDS011;8873;48.818;9.422;2022-12-05T09:58:27;15.40;;;7.07;;
17510;SDS011;8873;48.818;9.422;2022-12-05T10:00:58;11.95;;;6.93;;
17510;SDS011;8873;48.818;9.422;2022-12-05T10:03:29;13.00;;;6.88;;
17510;SDS011;8873;48.818;9.422;2022-12-05T10:06:05;14.88;;;7.45;;
17510;SDS011;8873;48.818;9.422;2022-12-05T10:08:37;16.88;;;7.63;;
17510;SDS011;8873;48.818;9.422;2022-12-05T10:11:08;18.27;;;9.40;;
17510;SDS011;8873;48.818;9.422;2022-12-05T10:13:44;20.30;;;9.18;;
17510;SDS011;8873;48.818;9.422;2022-12-05T10:16:16;22.38;;;9.70;;
17510;SDS011;8873;48.818;9.422;2022-12-05T10:18:47;18.33;;;9.02;;
17510;SDS011;8873;48.818;9.422;2022-12-05T10:21:17;22.02;;;10.70;;
17510;SDS011;8873;48.818;9.422;2022-12-05T10:23:51;23.75;;;10.20;;
17510;SDS011;8873;48.818;9.422;2022-12-05T10:26:25;22.80;;;10.40;;
17510;SDS011;8873;48.818;9.422;2022-12-05T10:28:55;24.25;;;10.93;;
17510;SDS011;8873;48.818;9.422;2022-12-05T10:31:24;21.17;;;10.93;;
17510;SDS011;8873;48.818;9.422;2022-12-05T10:33:56;30.85;;;11.82;;
17510;SDS011;8873;48.818;9.422;2022-12-05T10:36:24;27.52;;;11.95;;
17510;SDS011;8873;48.818;9.422;2022-12-05T10:38:52;25.85;;;10.95;;
17510;SDS011;8873;48.818;9.422;2022-12-05T10:41:21;25.35;;;10.48;;
17510;SDS011;8873;48.818;9.422;2022-12-05T10:43:50;18.38;;;9.10;;
17510;SDS011;8873;48.818;9.422;2022-12-05T10:46:17;21.27;;;9.80;;
17510;SDS011;8873;48.818;9.422;2022-12-05T10:48:45;19.15;;;9.00;;
17510;SDS011;8873;48.818;9.422;2022-12-05T10:51:15;25.40;;;11.55;;
17510;SDS011;8873;48.818;9.422;2022-12-05T10:53:44;23.13;;;10.70;;
17510;SDS011;8873;48.818;9.422;2022-12-05T10:59:01;25.83;;;10.65;;
17510;SDS011;8873;48.818;9.422;2022-12-05T11:01:29;24.38;;;10.85;;
17510;SDS011;8873;48.818;9.422;2022-12-05T11:03:59;20.35;;;10.45;;
17510;SDS011;8873;48.818;9.422;2022-12-05T11:06:29;24.73;;;10.25;;
17510;SDS011;8873;48.818;9.422;2022-12-05T11:08:57;24.00;;;11.32;;
17510;SDS011;8873;48.818;9.422;2022-12-05T11:11:31;21.95;;;10.98;;
17510;SDS011;8873;48.818;9.422;2022-12-05T11:13:59;22.20;;;10.38;;
17510;SDS011;8873;48.818;9.422;2022-12-05T11:16:28;19.48;;;9.82;;
17510;SDS011;8873;48.818;9.422;2022-12-05T11:18:56;18.45;;;9.13;;
17510;SDS011;8873;48.818;9.422;2022-12-05T11:21:45;23.83;;;10.75;;
17510;SDS011;8873;48.818;9.422;2022-12-05T11:24:19;20.10;;;10.10;;
17510;SDS011;8873;48.818;9.422;2022-12-05T11:26:47;18.13;;;8.68;;
17510;SDS011;8873;48.818;9.422;2022-12-05T11:32:01;17.88;;;9.32;;
17510;SDS011;8873;48.818;9.422;2022-12-05T11:34:32;23.05;;;10.65;;
17510;SDS011;8873;48.818;9.422;2022-12-05T11:37:04;20.42;;;9.82;;
17510;SDS011;8873;48.818;9.422;2022-12-05T11:39:33;19.23;;;9.57;;
17510;SDS011;8873;48.818;9.422;2022-12-05T11:44:37;22.40;;;9.60;;
17510;SDS011;8873;48.818;9.422;2022-12-05T11:47:11;18.48;;;9.77;;
17510;SDS011;8873;48.818;9.422;2022-12-05T11:49:44;19.10;;;9.15;;
17510;SDS011;8873;48.818;9.422;2022-12-05T11:52:20;19.95;;;9.63;;
17510;SDS011;8873;48.818;9.422;2022-12-05T11:54:53;22.50;;;9.82;;
17510;SDS011;8873;48.818;9.422;2022-12-05T11:57:37;12.77;;;7.63;;
17510;SDS011;8873;48.818;9.422;2022-12-05T12:00:17;13.35;;;7.97;;
17510;SDS011;8873;48.818;9.422;2022-12-05T12:05:33;15.25;;;7.95;;
17510;SDS011;8873;48.818;9.422;2022-12-05T12:08:08;13.75;;;7.75;;
17510;SDS011;8873;48.818;9.422;2022-12-05T12:10:41;11.90;;;7.13;;
17510;SDS011;8873;48.818;9.422;2022-12-05T12:13:19;21.23;;;7.90;;
17510;SDS011;8873;48.818;9.422;2022-12-05T12:15:59;12.50;;;7.10;;
17510;SDS011;8873;48.818;9.422;2022-12-05T12:18:59;13.13;;;7.05;;
17510;SDS011;8873;48.818;9.422;2022-12-05T12:21:30;14.00;;;7.10;;
17510;SDS011;8873;48.818;9.422;2022-12-05T12:24:09;13.40;;;6.45;;
17510;SDS011;8873;48.818;9.422;2022-12-05T12:26:42;14.23;;;7.63;;
17510;SDS011;8873;48.818;9.422;2022-12-05T12:29:16;16.40;;;6.57;;
17510;SDS011;8873;48.818;9.422;2022-12-05T12:31:52;10.95;;;6.90;;
17510;SDS011;8873;48.818;9.422;2022-12-05T12:34:28;9.80;;;5.90;;
17510;SDS011;8873;48.818;9.422;2022-12-05T12:37:01;13.82;;;7.38;;
17510;SDS011;8873;48.818;9.422;2022-12-05T12:39:33;14.13;;;7.28;;
17510;SDS011;8873;48.818;9.422;2022-12-05T12:42:12;11.25;;;6.70;;
17510;SDS011;8873;48.818;9.422;2022-12-05T12:44:47;13.18;;;6.70;;
17510;SDS011;8873;48.818;9.422;2022-12-05T12:47:22;10.98;;;6.28;;
17510;SDS011;8873;48.818;9.422;2022-12-05T12:49:58;9.75;;;5.68;;
17510;SDS011;8873;48.818;9.422;2022-12-05T12:52:31;15.93;;;6.50;;
17510;SDS011;8873;48.818;9.422;2022-12-05T12:55:07;10.63;;;5.50;;
17510;SDS011;8873;48.818;9.422;2022-12-05T12:57:46;11.13;;;6.05;;
17510;SDS011;8873;48.818;9.422;2022-12-05T13:00:20;8.93;;;5.70;;
17510;SDS011;8873;48.818;9.422;2022-12-05T13:02:49;12.20;;;5.88;;
17510;SDS011;8873;48.818;9.422;2022-12-05T13:05:20;8.88;;;5.40;;
17510;SDS011;8873;48.818;9.422;2022-12-05T13:07:50;11.05;;;6.07;;
17510;SDS011;8873;48.818;9.422;2022-12-05T13:10:22;12.25;;;6.75;;
17510;SDS011;8873;48.818;9.422;2022-12-05T13:12:51;26.88;;;11.35;;
17510;SDS011;8873;48.818;9.422;2022-12-05T13:15:21;29.00;;;11.30;;
17510;SDS011;8873;48.818;9.422;2022-12-05T13:17:50;19.70;;;9.35;;
17510;SDS011;8873;48.818;9.422;2022-12-05T13:20:20;18.98;;;9.55;;
17510;SDS011;8873;48.818;9.422;2022-12-05T13:22:48;14.23;;;6.65;;
17510;SDS011;8873;48.818;9.422;2022-12-05T13:25:17;16.77;;;7.07;;
17510;SDS011;8873;48.818;9.422;2022-12-05T13:27:54;12.82;;;6.90;;
17510;SDS011;8873;48.818;9.422;2022-12-05T13:30:22;12.35;;;6.85;;
17510;SDS011;8873;48.818;9.422;2022-12-05T13:32:54;12.27;;;7.10;;
17510;SDS011;8873;48.818;9.422;2022-12-05T13:35:25;11.27;;;6.13;;
17510;SDS011;8873;48.818;9.422;2022-12-05T13:38:18;12.57;;;7.13;;
17510;SDS011;8873;48.818;9.422;2022-12-05T13:41:03;13.52;;;7.30;;
17510;SDS011;8873;48.818;9.422;2022-12-05T13:43:50;15.20;;;7.80;;
17510;SDS011;8873;48.818;9.422;2022-12-05T13:46:32;12.75;;;7.15;;
17510;SDS011;8873;48.818;9.422;2022-12-05T13:49:01;18.60;;;8.07;;
17510;SDS011;8873;48.818;9.422;2022-12-05T13:51:34;13.40;;;7.45;;
17510;SDS011;8873;48.818;9.422;2022-12-05T13:54:03;13.25;;;6.45;;
17510;SDS011;8873;48.818;9.422;2022-12-05T13:56:45;13.38;;;7.30;;
17510;SDS011;8873;48.818;9.422;2022-12-05T13:59:17;11.70;;;7.43;;
17510;SDS011;8873;48.818;9.422;2022-12-05T14:02:09;19.25;;;9.00;;
17510;SDS011;8873;48.818;9.422;2022-12-05T14:04:54;15.45;;;7.90;;
17510;SDS011;8873;48.818;9.422;2022-12-05T14:07:41;13.48;;;7.30;;
17510;SDS011;8873;48.818;9.422;2022-12-05T14:10:09;14.25;;;6.63;;
17510;SDS011;8873;48.818;9.422;2022-12-05T14:12:49;13.38;;;7.40;;
17510;SDS011;8873;48.818;9.422;2022-12-05T14:15:26;13.30;;;7.80;;
17510;SDS011;8873;48.818;9.422;2022-12-05T14:17:55;16.70;;;8.25;;
17510;SDS011;8873;48.818;9.422;2022-12-05T14:20:24;17.20;;;10.02;;
17510;SDS011;8873;48.818;9.422;2022-12-05T14:23:02;19.60;;;9.73;;
17510;SDS011;8873;48.818;9.422;2022-12-05T14:25:35;18.65;;;8.90;;
17510;SDS011;8873;48.818;9.422;2022-12-05T14:28:25;17.90;;;9.40;;
17510;SDS011;8873;48.818;9.422;2022-12-05T14:31:03;16.38;;;8.88;;
17510;SDS011;8873;48.818;9.422;2022-12-05T14:33:34;17.80;;;9.23;;
17510;SDS011;8873;48.818;9.422;2022-12-05T14:36:03;17.17;;;8.52;;
17510;SDS011;8873;48.818;9.422;2022-12-05T14:38:32;19.85;;;8.98;;
17510;SDS011;8873;48.818;9.422;2022-12-05T14:41:10;20.58;;;9.55;;
17510;SDS011;8873;48.818;9.422;2022-12-05T14:43:38;16.25;;;8.73;;
17510;SDS011;8873;48.818;9.422;2022-12-05T14:46:15;18.80;;;8.73;;
17510;SDS011;8873;48.818;9.422;2022-12-05T14:48:43;19.88;;;9.27;;
17510;SDS011;8873;48.818;9.422;2022-12-05T14:54:01;17.65;;;8.85;;
17510;SDS011;8873;48.818;9.422;2022-12-05T14:56:31;18.65;;;8.43;;
17510;SDS011;8873;48.818;9.422;2022-12-05T14:59:01;19.42;;;9.88;;
17510;SDS011;8873;48.818;9.422;2022-12-05T15:01:40;21.25;;;9.70;;
17510;SDS011;8873;48.818;9.422;2022-12-05T15:04:15;18.45;;;8.38;;
17510;SDS011;8873;48.818;9.422;2022-12-05T15:06:45;16.00;;;8.82;;
17510;SDS011;8873;48.818;9.422;2022-12-05T15:09:23;16.92;;;9.57;;
17510;SDS011;8873;48.818;9.422;2022-12-05T15:12:03;21.48;;;9.45;;
17510;SDS011;8873;48.818;9.422;2022-12-05T15:14:36;16.73;;;8.73;;
17510;SDS011;8873;48.818;9.422;2022-12-05T15:17:06;14.73;;;8.75;;
17510;SDS011;8873;48.818;9.422;2022-12-05T15:19:40;14.20;;;7.88;;
17510;SDS011;8873;48.818;9.422;2022-12-05T15:22:08;15.10;;;8.05;;